Time;durP1;ratioP1;P1;durP2;ratioP2;P2;SDS_P1;SDS_P2;PMS_P1;PMS_P2;Temp;Humidity;BMP_temperature;BMP_pressure;BME280_temperature;BME280_humidity;BME280_pressure;Samples;Min_cycle;Max_cycle;Signal;HPM_P1;HPM_P2
2023/10/17 00:01:48;;;;;;;4.83;3.17;;;5.20;77.70;;;;;;4990308;28;20433;-68
2023/10/17 00:06:43;;;;;;;6.97;3.90;;;5.10;77.40;;;;;;4984307;28;20477;-69
2023/10/17 00:09:09;;;;;;;8.00;3.50;;;5.00;77.60;;;;;;4983052;28;20438;-69
2023/10/17 00:12:14;;;;;;;7.20;4.30;;;5.00;78.00;;;;;;4987057;28;20437;-69
2023/10/17 00:14:34;;;;;;;6.53;3.43;;;5.10;78.10;;;;;;4981680;28;20227;-69
2023/10/17 00:17:03;;;;;;;6.93;3.67;;;5.00;78.10;;;;;;4981511;28;20469;-68
2023/10/17 00:19:32;;;;;;;6.23;3.63;;;5.00;78.30;;;;;;4989102;28;20965;-71
2023/10/17 00:21:59;;;;;;;7.20;4.63;;;4.90;78.40;;;;;;4987452;28;20438;-72
2023/10/17 00:24:25;;;;;;;7.80;3.90;;;4.90;78.40;;;;;;4988470;28;20433;-69
2023/10/17 00:26:51;;;;;;;11.70;4.00;;;4.80;78.60;;;;;;4979616;28;20500;-69
2023/10/17 00:29:17;;;;;;;10.20;4.60;;;4.80;78.70;;;;;;4987906;28;20441;-69
2023/10/17 00:31:46;;;;;;;7.23;3.63;;;4.70;78.90;;;;;;4986768;28;20539;-69
2023/10/17 00:34:23;;;;;;;5.97;3.90;;;4.70;79.20;;;;;;4987492;28;20226;-68
2023/10/17 00:36:49;;;;;;;8.27;4.07;;;4.60;79.30;;;;;;4982471;28;20461;-68
2023/10/17 00:39:36;;;;;;;6.00;3.53;;;4.60;79.50;;;;;;4986404;28;20868;-70
2023/10/17 00:44:37;;;;;;;8.97;4.40;;;4.60;79.30;;;;;;4983938;28;20485;-70
2023/10/17 00:47:04;;;;;;;11.93;4.90;;;4.50;79.60;;;;;;4986610;28;20473;-69
2023/10/17 00:49:40;;;;;;;7.47;4.40;;;4.50;80.00;;;;;;4988512;28;20861;-70
2023/10/17 00:52:15;;;;;;;7.13;4.30;;;4.60;80.20;;;;;;4990091;28;20436;-70
2023/10/17 00:54:45;;;;;;;7.10;4.23;;;4.70;80.20;;;;;;4989356;28;20984;-70
2023/10/17 00:57:13;;;;;;;9.60;4.57;;;4.70;79.70;;;;;;4985283;28;20466;-71
2023/10/17 00:59:44;;;;;;;5.93;3.93;;;4.70;80.20;;;;;;4985162;28;20426;-70
2023/10/17 01:02:15;;;;;;;6.23;3.80;;;4.80;80.00;;;;;;4990040;28;20430;-69
2023/10/17 01:04:44;;;;;;;8.10;4.17;;;4.80;80.00;;;;;;4983498;28;20429;-69
2023/10/17 01:07:11;;;;;;;6.17;3.57;;;4.80;80.20;;;;;;4985228;28;20552;-70
2023/10/17 01:09:37;;;;;;;8.23;4.27;;;4.80;80.00;;;;;;4980058;28;20472;-70
2023/10/17 01:12:10;;;;;;;8.43;4.30;;;4.70;79.70;;;;;;4988960;28;20434;-71
2023/10/17 01:14:36;;;;;;;5.63;3.70;;;4.60;80.00;;;;;;4983855;28;20226;-69
2023/10/17 01:17:07;;;;;;;15.07;4.87;;;4.60;80.20;;;;;;4984049;28;20468;-69
2023/10/17 01:19:35;;;;;;;6.57;4.40;;;4.60;80.20;;;;;;4987160;28;20462;-68
2023/10/17 01:22:01;;;;;;;7.13;4.33;;;4.60;80.20;;;;;;4991998;28;20419;-69
2023/10/17 01:24:26;;;;;;;7.30;4.07;;;4.50;80.20;;;;;;4988540;28;20911;-69
2023/10/17 01:26:52;;;;;;;7.00;3.97;;;4.50;80.30;;;;;;4987957;28;20626;-70
2023/10/17 01:29:18;;;;;;;6.87;3.93;;;4.60;80.50;;;;;;4984993;28;20190;-69
2023/10/17 01:31:44;;;;;;;7.07;4.20;;;4.60;80.50;;;;;;4987735;28;20418;-68
2023/10/17 01:34:11;;;;;;;5.47;4.10;;;4.50;80.30;;;;;;4982885;28;20231;-69
2023/10/17 01:36:40;;;;;;;8.70;3.50;;;4.40;80.60;;;;;;4985661;28;20469;-70
2023/10/17 01:39:08;;;;;;;8.63;4.27;;;4.40;80.90;;;;;;4988709;28;20420;-69
2023/10/17 01:41:34;;;;;;;7.90;4.47;;;4.30;81.10;;;;;;4988280;28;20425;-68
2023/10/17 01:44:01;;;;;;;7.47;4.17;;;4.30;81.20;;;;;;4990266;28;20414;-69
2023/10/17 01:46:29;;;;;;;8.60;4.30;;;4.20;81.40;;;;;;4989509;28;20476;-68
2023/10/17 01:49:10;;;;;;;8.30;4.50;;;4.20;81.50;;;;;;4990892;28;20598;-68
2023/10/17 01:51:36;;;;;;;9.20;4.40;;;4.20;81.70;;;;;;4989912;28;20797;-68
2023/10/17 01:54:08;;;;;;;5.80;3.73;;;4.30;81.50;;;;;;4992635;28;20477;-68
2023/10/17 01:56:38;;;;;;;13.83;4.13;;;4.20;81.50;;;;;;4988007;28;20461;-69
2023/10/17 01:59:12;;;;;;;10.43;5.00;;;4.20;81.70;;;;;;4996942;28;20422;-69
2023/10/17 02:01:40;;;;;;;7.40;3.50;;;4.10;81.80;;;;;;4987474;28;20428;-70
2023/10/17 02:04:12;;;;;;;9.63;4.63;;;4.10;81.90;;;;;;4990414;28;20426;-70
2023/10/17 02:06:39;;;;;;;7.43;4.17;;;4.20;82.20;;;;;;4990767;28;20476;-71
2023/10/17 02:12:04;;;;;;;8.90;3.63;;;4.10;81.90;;;;;;4954444;28;20504;-70
2023/10/17 02:14:29;;;;;;;7.53;4.23;;;4.00;82.20;;;;;;4956494;28;20574;-68
2023/10/17 02:16:59;;;;;;;7.90;4.00;;;4.00;82.40;;;;;;4959248;28;20491;-70
2023/10/17 02:19:31;;;;;;;7.40;4.10;;;4.00;82.50;;;;;;4958348;28;20193;-69
2023/10/17 02:22:00;;;;;;;7.03;3.80;;;4.00;82.70;;;;;;4955116;28;20897;-68
2023/10/17 02:24:29;;;;;;;6.80;4.27;;;4.00;82.50;;;;;;4959108;28;20487;-68
2023/10/17 02:27:08;;;;;;;7.07;4.40;;;4.10;82.70;;;;;;4952326;28;20467;-69
2023/10/17 02:29:41;;;;;;;8.47;4.60;;;4.00;82.50;;;;;;4950245;28;20458;-68
2023/10/17 02:32:14;;;;;;;8.20;4.60;;;4.00;82.80;;;;;;4950125;28;20474;-69
2023/10/17 02:34:43;;;;;;;9.60;4.47;;;3.90;83.00;;;;;;4950920;28;20490;-68
2023/10/17 02:37:11;;;;;;;6.90;4.20;;;4.00;83.10;;;;;;4944719;28;21026;-68
2023/10/17 02:39:38;;;;;;;8.33;4.37;;;4.00;83.30;;;;;;4950498;28;20427;-68
2023/10/17 02:42:08;;;;;;;7.10;3.67;;;4.00;83.10;;;;;;4951628;28;20978;-68
2023/10/17 02:44:35;;;;;;;6.37;4.00;;;4.00;83.00;;;;;;4956766;28;20442;-68
2023/10/17 02:47:05;;;;;;;7.53;4.53;;;4.00;83.00;;;;;;4958053;28;20516;-69
2023/10/17 02:49:36;;;;;;;7.00;4.73;;;4.00;83.10;;;;;;4987820;28;20922;-68
2023/10/17 02:52:03;;;;;;;8.57;4.20;;;4.00;83.30;;;;;;4986854;28;20425;-69
2023/10/17 02:54:29;;;;;;;7.00;3.43;;;4.00;83.30;;;;;;4990284;28;20846;-69
2023/10/17 02:56:54;;;;;;;5.87;3.77;;;4.10;83.30;;;;;;4982588;28;20490;-69
2023/10/17 02:59:21;;;;;;;8.83;3.87;;;4.10;83.10;;;;;;4991173;28;20811;-69
2023/10/17 03:01:52;;;;;;;9.20;4.90;;;4.10;83.00;;;;;;4990290;28;20179;-68
2023/10/17 03:04:23;;;;;;;7.07;4.20;;;4.00;83.00;;;;;;4992863;28;20438;-69
2023/10/17 03:06:56;;;;;;;7.23;4.00;;;4.00;83.00;;;;;;4985580;28;20470;-69
2023/10/17 03:11:57;;;;;;;4.60;3.30;;;4.10;83.00;;;;;;4992314;28;20838;-69
2023/10/17 03:14:39;;;;;;;7.47;3.97;;;4.00;83.00;;;;;;4989533;28;20209;-69
2023/10/17 03:17:06;;;;;;;7.80;4.43;;;4.00;83.00;;;;;;4990375;28;20462;-68
2023/10/17 03:19:32;;;;;;;5.00;4.00;;;4.20;83.30;;;;;;4994066;28;20446;-69
2023/10/17 03:22:16;;;;;;;8.60;5.50;;;4.20;82.20;;;;;;4998973;28;20515;-69
2023/10/17 03:24:45;;;;;;;7.70;4.50;;;4.20;81.90;;;;;;4986042;28;20434;-69
2023/10/17 03:27:22;;;;;;;8.10;4.93;;;4.20;82.10;;;;;;4987978;28;20514;-69
2023/10/17 03:29:48;;;;;;;8.67;4.60;;;4.10;82.20;;;;;;4984326;28;20511;-68
2023/10/17 03:32:15;;;;;;;9.70;4.90;;;4.00;82.20;;;;;;4989425;28;20481;-68
2023/10/17 03:34:44;;;;;;;6.87;4.43;;;3.90;82.80;;;;;;4988810;28;20218;-68
2023/10/17 03:39:52;;;;;;;9.30;4.87;;;3.90;83.30;;;;;;4988532;28;20457;-68
2023/10/17 03:45:26;;;;;;;10.30;5.80;;;3.90;83.60;;;;;;4989411;28;20426;-71
2023/10/17 03:47:53;;;;;;;7.50;5.10;;;3.90;83.70;;;;;;4989569;28;20437;-69
2023/10/17 03:51:10;;;;;;;9.17;4.97;;;4.00;83.80;;;;;;4990650;28;20438;-69
2023/10/17 03:53:25;;;;;;;9.23;5.37;;;4.20;83.80;;;;;;4976832;28;20453;-69
2023/10/17 03:55:51;;;;;;;10.20;5.03;;;4.20;83.70;;;;;;4982161;28;21050;-69
2023/10/17 04:00:54;;;;;;;8.53;5.00;;;4.30;82.10;;;;;;4989370;28;20532;-69
2023/10/17 04:03:23;;;;;;;9.10;5.20;;;4.30;81.90;;;;;;4987375;28;20434;-69
2023/10/17 04:05:51;;;;;;;7.53;5.30;;;4.10;81.90;;;;;;4984172;28;20450;-68
2023/10/17 04:08:26;;;;;;;11.83;5.60;;;4.10;82.10;;;;;;4986438;28;20456;-68
2023/10/17 04:11:36;;;;;;;6.83;4.53;;;4.30;82.40;;;;;;4992733;28;20505;-72
2023/10/17 04:13:40;;;;;;;7.20;4.43;;;4.20;81.90;;;;;;4979776;28;20513;-69
2023/10/17 04:16:10;;;;;;;9.13;4.73;;;4.30;82.10;;;;;;4980278;28;20911;-69
2023/10/17 04:18:38;;;;;;;11.57;5.10;;;4.40;81.70;;;;;;4986117;28;20294;-68
2023/10/17 04:24:04;;;;;;;7.57;4.60;;;4.40;81.40;;;;;;4987982;28;20492;-69
2023/10/17 04:26:36;;;;;;;7.77;5.00;;;4.40;81.40;;;;;;4980345;28;20469;-69
2023/10/17 04:29:38;;;;;;;7.30;4.30;;;4.40;81.40;;;;;;4988192;28;20418;-69
2023/10/17 04:31:57;;;;;;;9.30;5.20;;;4.40;81.50;;;;;;4987256;28;20535;-69
2023/10/17 04:34:22;;;;;;;9.60;5.60;;;4.50;81.40;;;;;;4982955;28;20501;-68
2023/10/17 04:36:53;;;;;;;11.47;5.60;;;4.50;81.20;;;;;;4988302;28;20210;-69
2023/10/17 04:39:18;;;;;;;12.20;6.10;;;4.40;81.40;;;;;;4983833;28;20762;-69
2023/10/17 04:44:17;;;;;;;10.07;5.73;;;4.40;81.70;;;;;;5001964;28;20220;-70
2023/10/17 04:47:07;;;;;;;9.50;4.80;;;4.30;81.80;;;;;;4991564;28;20469;-70
2023/10/17 04:49:37;;;;;;;9.80;6.00;;;4.40;81.90;;;;;;4989833;28;20484;-68
2023/10/17 04:52:07;;;;;;;7.77;5.50;;;4.50;81.90;;;;;;4993585;28;20509;-70
2023/10/17 04:57:04;;;;;;;7.60;5.00;;;4.50;82.20;;;;;;4992447;28;20464;-70
2023/10/17 05:07:34;;;;;;;12.03;5.87;;;4.90;81.20;;;;;;4985252;28;20840;-70
2023/10/17 06:18:50;;;;;;;10.80;5.73;;;5.90;78.60;;;;;;4985144;28;20477;-69
2023/10/17 06:21:19;;;;;;;13.97;7.17;;;6.00;78.00;;;;;;4987437;28;20434;-69
2023/10/17 06:34:14;;;;;;;16.87;7.73;;;5.90;77.40;;;;;;4990181;28;20950;-70
2023/10/17 06:36:41;;;;;;;13.50;6.90;;;6.00;77.60;;;;;;4982632;28;20458;-69
2023/10/17 06:39:15;;;;;;;13.23;6.60;;;5.90;77.00;;;;;;4989505;28;20422;-69
2023/10/17 06:41:41;;;;;;;13.40;6.90;;;5.70;77.10;;;;;;4986929;28;20501;-69
2023/10/17 06:44:10;;;;;;;12.53;7.00;;;5.50;78.10;;;;;;4994579;28;20517;-69
2023/10/17 06:50:17;;;;;;;13.30;6.77;;;5.40;78.90;;;;;;4986110;28;20421;-70
2023/10/17 06:52:19;;;;;;;12.00;7.03;;;5.60;78.90;;;;;;4981997;28;20434;-69
2023/10/17 06:54:58;;;;;;;13.87;7.63;;;5.60;78.60;;;;;;4985485;28;20561;-69
2023/10/17 06:57:24;;;;;;;12.83;6.80;;;5.70;78.70;;;;;;4986383;28;20519;-71
2023/10/17 07:00:00;;;;;;;10.63;6.30;;;5.80;78.60;;;;;;4984809;28;20469;-70
2023/10/17 07:02:41;;;;;;;13.87;6.47;;;5.90;78.40;;;;;;4988575;28;20466;-70
2023/10/17 07:05:08;;;;;;;15.27;7.30;;;6.00;78.30;;;;;;4982230;28;20978;-71
2023/10/17 07:07:42;;;;;;;14.00;6.97;;;6.00;78.10;;;;;;4982997;28;20418;-69
2023/10/17 07:10:16;;;;;;;13.07;6.80;;;6.10;78.10;;;;;;4990274;28;20977;-70
2023/10/17 07:12:50;;;;;;;20.60;7.67;;;6.10;77.80;;;;;;4989081;28;20504;-68
2023/10/17 07:15:19;;;;;;;24.00;8.43;;;6.20;77.80;;;;;;4984875;28;20476;-69
2023/10/17 07:23:15;;;;;;;14.30;8.03;;;6.30;77.30;;;;;;4991626;28;20537;-69
2023/10/17 07:25:42;;;;;;;15.37;7.00;;;6.30;77.40;;;;;;4984872;28;20549;-70
2023/10/17 07:28:10;;;;;;;13.53;7.50;;;6.50;77.30;;;;;;4994077;28;20445;-71
2023/10/17 07:30:40;;;;;;;15.50;7.47;;;6.70;76.40;;;;;;4992851;28;20514;-69
2023/10/17 07:33:08;;;;;;;15.03;7.03;;;6.80;76.10;;;;;;4988926;28;20737;-71
2023/10/17 07:35:36;;;;;;;17.13;8.00;;;6.80;75.10;;;;;;4982795;28;20485;-69
2023/10/17 07:38:04;;;;;;;14.00;7.60;;;6.70;75.10;;;;;;4991079;28;20724;-70
2023/10/17 07:40:33;;;;;;;17.97;7.77;;;6.60;75.70;;;;;;4991138;28;20477;-71
2023/10/17 07:43:00;;;;;;;17.83;9.90;;;6.60;75.80;;;;;;4986529;28;20475;-70
2023/10/17 07:45:37;;;;;;;20.50;8.10;;;6.40;75.80;;;;;;4986451;28;20536;-69
2023/10/17 07:48:04;;;;;;;14.33;7.93;;;6.30;76.20;;;;;;4986024;28;20496;-71
2023/10/17 07:50:32;;;;;;;12.83;6.50;;;6.30;76.40;;;;;;4987714;28;20429;-71
2023/10/17 07:53:05;;;;;;;20.33;8.97;;;6.20;76.40;;;;;;4988675;28;20459;-70
2023/10/17 07:55:36;;;;;;;13.83;7.77;;;6.40;76.80;;;;;;4981253;28;21013;-70
2023/10/17 07:58:06;;;;;;;12.80;7.57;;;6.40;76.70;;;;;;4987690;28;20757;-70
2023/10/17 08:00:38;;;;;;;17.00;8.10;;;6.50;76.40;;;;;;4986679;28;20508;-70
2023/10/17 08:03:15;;;;;;;12.70;7.37;;;6.60;76.40;;;;;;4987068;28;20417;-69
2023/10/17 08:05:45;;;;;;;18.03;8.03;;;6.90;76.10;;;;;;4985312;28;20877;-72
2023/10/17 08:08:14;;;;;;;14.23;8.10;;;7.10;75.50;;;;;;4989674;28;20518;-70
2023/10/17 08:10:45;;;;;;;16.50;8.00;;;7.30;75.20;;;;;;4992855;28;20430;-70
2023/10/17 08:13:12;;;;;;;11.77;7.43;;;7.50;74.50;;;;;;4988379;28;20436;-71
2023/10/17 08:15:53;;;;;;;14.83;7.30;;;7.70;73.30;;;;;;4987144;28;20457;-70
2023/10/17 08:18:22;;;;;;;16.93;7.97;;;7.90;72.90;;;;;;4989793;28;20425;-70
2023/10/17 08:23:27;;;;;;;14.67;7.63;;;8.40;71.60;;;;;;4989876;28;20441;-70
2023/10/17 08:26:00;;;;;;;18.77;8.77;;;8.50;71.10;;;;;;4987409;28;20958;-69
2023/10/17 08:29:00;;;;;;;29.03;9.30;;;8.50;70.50;;;;;;4989455;28;20178;-71
2023/10/17 08:31:35;;;;;;;14.67;8.10;;;8.50;71.00;;;;;;4985317;28;20604;-72
2023/10/17 08:36:43;;;;;;;18.03;8.10;;;8.80;69.90;;;;;;4985125;28;20461;-70
2023/10/17 08:42:05;;;;;;;15.30;8.53;;;8.90;69.50;;;;;;4985784;28;20434;-70
2023/10/17 08:44:34;;;;;;;15.43;8.17;;;9.00;69.50;;;;;;4985642;28;20501;-70
2023/10/17 08:47:04;;;;;;;17.77;9.10;;;9.10;69.40;;;;;;4986073;28;20524;-71
2023/10/17 08:49:31;;;;;;;16.57;8.40;;;9.20;69.10;;;;;;4988199;28;20548;-70
2023/10/17 08:51:57;;;;;;;15.63;9.03;;;9.30;68.90;;;;;;4983580;28;20417;-69
2023/10/17 08:54:30;;;;;;;15.10;8.97;;;9.30;68.90;;;;;;4985897;28;21041;-69
2023/10/17 08:57:01;;;;;;;18.10;9.70;;;9.40;68.80;;;;;;4975879;28;20484;-70
2023/10/17 09:05:17;;;;;;;14.83;9.40;;;9.70;67.90;;;;;;4909960;29;20505;-70
2023/10/17 09:07:45;;;;;;;21.07;10.30;;;9.70;67.90;;;;;;4911320;29;20460;-71
2023/10/17 09:10:20;;;;;;;20.03;10.80;;;9.60;67.90;;;;;;4913354;29;20499;-69
2023/10/17 09:15:48;;;;;;;17.13;9.77;;;9.60;68.00;;;;;;4905852;29;20475;-69
2023/10/17 09:18:14;;;;;;;18.37;9.63;;;9.70;67.70;;;;;;4913380;29;20418;-71
2023/10/17 09:20:40;;;;;;;17.17;9.83;;;9.70;67.70;;;;;;4913564;29;20435;-71
2023/10/17 09:23:26;;;;;;;19.00;8.47;;;9.90;67.70;;;;;;4917929;29;20424;-71
2023/10/17 09:26:00;;;;;;;19.60;10.73;;;10.00;67.50;;;;;;4912026;29;20225;-71
2023/10/17 09:28:28;;;;;;;27.27;12.63;;;10.10;67.20;;;;;;4918014;29;20893;-71
2023/10/17 09:31:15;;;;;;;17.73;10.30;;;10.20;67.20;;;;;;4920096;29;20429;-68
2023/10/17 09:33:45;;;;;;;23.20;10.60;;;10.20;67.00;;;;;;4912023;29;20521;-70
2023/10/17 09:36:13;;;;;;;16.60;9.40;;;10.20;67.20;;;;;;4914662;29;20959;-70
2023/10/17 09:38:45;;;;;;;16.03;9.47;;;10.20;67.50;;;;;;4917312;29;20556;-70
2023/10/17 09:41:17;;;;;;;15.77;8.80;;;10.30;67.60;;;;;;4964570;28;20466;-69
2023/10/17 09:43:46;;;;;;;19.50;10.53;;;10.40;67.50;;;;;;4992473;28;20500;-71
2023/10/17 09:46:13;;;;;;;16.53;9.20;;;10.40;67.60;;;;;;4984738;28;21020;-71
2023/10/17 09:48:43;;;;;;;17.47;9.60;;;10.40;67.70;;;;;;4989787;28;20434;-70
2023/10/17 09:51:26;;;;;;;19.63;10.17;;;10.50;67.70;;;;;;4991794;28;20927;-70
2023/10/17 09:53:53;;;;;;;19.00;10.13;;;10.60;67.60;;;;;;4987125;28;20469;-71
2023/10/17 09:56:26;;;;;;;17.17;9.03;;;10.80;67.50;;;;;;4983414;28;20492;-70
2023/10/17 09:58:55;;;;;;;17.87;10.20;;;11.00;67.30;;;;;;4990341;28;20426;-70
2023/10/17 10:01:24;;;;;;;18.53;11.03;;;11.00;66.60;;;;;;4989521;28;20432;-70
2023/10/17 10:04:07;;;;;;;19.33;10.50;;;11.00;66.70;;;;;;4984649;28;20430;-71
2023/10/17 10:06:34;;;;;;;15.63;9.43;;;11.10;66.60;;;;;;4986337;28;20572;-69
2023/10/17 10:09:14;;;;;;;15.20;9.27;;;11.10;66.60;;;;;;4992772;28;20797;-70
2023/10/17 10:11:49;;;;;;;19.50;10.37;;;11.30;66.40;;;;;;4989554;28;20424;-69
2023/10/17 10:14:40;;;;;;;19.97;11.00;;;11.40;66.10;;;;;;4986185;28;20906;-71
2023/10/17 10:17:08;;;;;;;20.33;10.50;;;11.40;65.80;;;;;;4987845;28;20918;-71
2023/10/17 10:19:43;;;;;;;20.37;10.80;;;11.40;65.80;;;;;;4991306;28;21043;-71
2023/10/17 10:22:10;;;;;;;22.93;10.93;;;11.50;65.80;;;;;;4992155;28;20483;-70
2023/10/17 10:24:37;;;;;;;19.00;9.77;;;11.50;66.10;;;;;;4991648;28;20495;-70
2023/10/17 10:27:15;;;;;;;18.77;9.90;;;11.50;66.10;;;;;;4987197;28;20640;-71
2023/10/17 10:29:52;;;;;;;19.17;9.93;;;11.70;66.30;;;;;;4988958;28;20914;-70
2023/10/17 10:32:40;;;;;;;20.00;11.10;;;11.70;66.00;;;;;;4992431;28;20432;-71
2023/10/17 10:35:06;;;;;;;21.40;11.30;;;11.50;66.10;;;;;;4987839;28;21496;-72
2023/10/17 10:37:54;;;;;;;19.23;10.73;;;11.50;66.40;;;;;;4988680;28;20426;-69
2023/10/17 10:40:22;;;;;;;21.17;10.93;;;11.50;66.40;;;;;;4988476;28;20532;-71
2023/10/17 10:42:50;;;;;;;22.53;10.70;;;11.50;66.70;;;;;;4989388;28;20436;-70
2023/10/17 10:45:42;;;;;;;19.07;10.40;;;11.50;66.70;;;;;;4983627;28;20541;-70
2023/10/17 10:48:17;;;;;;;23.17;11.87;;;11.40;67.20;;;;;;4988324;28;20410;-70
2023/10/17 10:50:48;;;;;;;20.83;12.03;;;11.30;67.30;;;;;;4987890;28;20424;-69
2023/10/17 10:53:23;;;;;;;19.60;10.80;;;11.30;67.50;;;;;;4991395;28;20785;-71
2023/10/17 10:56:02;;;;;;;18.50;10.33;;;11.20;67.70;;;;;;4987137;28;20576;-69
2023/10/17 10:58:30;;;;;;;24.20;11.30;;;11.20;68.00;;;;;;4993532;28;20884;-69
2023/10/17 11:00:58;;;;;;;24.10;12.37;;;11.20;68.20;;;;;;4989702;28;20422;-70
2023/10/17 11:03:25;;;;;;;18.83;10.60;;;11.10;68.30;;;;;;4990153;28;20492;-71
2023/10/17 11:06:04;;;;;;;21.13;12.57;;;11.10;68.50;;;;;;4988061;28;20825;-72
2023/10/17 11:08:43;;;;;;;22.77;10.67;;;11.10;68.60;;;;;;4987349;28;20405;-70
2023/10/17 11:11:10;;;;;;;19.20;10.93;;;11.10;68.60;;;;;;4987886;28;20429;-71
2023/10/17 11:13:38;;;;;;;19.80;11.03;;;11.20;68.60;;;;;;4987523;28;20462;-71
2023/10/17 11:16:05;;;;;;;19.13;9.70;;;11.40;68.50;;;;;;4983927;28;20544;-71
2023/10/17 11:18:43;;;;;;;23.77;11.60;;;11.50;68.30;;;;;;4988384;28;20448;-70
2023/10/17 11:21:10;;;;;;;23.97;11.53;;;11.60;68.20;;;;;;4988431;28;20441;-71
2023/10/17 11:23:39;;;;;;;19.63;11.33;;;11.60;68.20;;;;;;4991687;28;20437;-71
2023/10/17 11:26:12;;;;;;;20.63;10.80;;;11.70;68.00;;;;;;4981918;28;20944;-71
2023/10/17 11:28:46;;;;;;;18.80;10.37;;;11.70;68.00;;;;;;4987623;28;20441;-71
2023/10/17 11:31:21;;;;;;;25.37;11.00;;;11.80;68.00;;;;;;4985616;28;21109;-71
2023/10/17 11:33:52;;;;;;;21.37;11.13;;;11.80;68.20;;;;;;4985410;28;20467;-69
2023/10/17 11:36:20;;;;;;;18.57;10.03;;;11.80;68.00;;;;;;4980982;28;20466;-69
2023/10/17 11:38:56;;;;;;;17.33;10.27;;;11.90;68.20;;;;;;4986614;28;20424;-70
2023/10/17 11:41:29;;;;;;;19.70;10.80;;;12.10;67.90;;;;;;4981420;28;21183;-70
2023/10/17 11:43:55;;;;;;;18.90;11.10;;;12.00;67.70;;;;;;4990188;28;20484;-71
2023/10/17 11:46:31;;;;;;;19.00;9.97;;;12.10;67.70;;;;;;4975302;28;20889;-69
2023/10/17 11:49:39;;;;;;;17.10;10.80;;;12.20;67.70;;;;;;4986160;28;20425;-69
2023/10/17 11:52:14;;;;;;;19.23;10.90;;;12.20;67.30;;;;;;4988625;28;20934;-70
2023/10/17 11:55:11;;;;;;;18.50;11.00;;;12.10;67.70;;;;;;4984650;28;20462;-69
2023/10/17 11:57:37;;;;;;;18.20;10.07;;;12.10;67.90;;;;;;4988575;28;20933;-70
2023/10/17 12:02:47;;;;;;;21.37;10.87;;;12.00;68.00;;;;;;4989456;28;20476;-69
2023/10/17 12:05:22;;;;;;;24.93;11.27;;;12.10;68.00;;;;;;4985915;28;20532;-70
2023/10/17 12:07:53;;;;;;;18.03;9.93;;;12.20;67.90;;;;;;4987774;28;20422;-71
2023/10/17 12:10:24;;;;;;;18.30;10.90;;;12.20;67.90;;;;;;4982574;28;20946;-68
2023/10/17 12:12:52;;;;;;;19.47;10.47;;;12.20;68.00;;;;;;4990538;28;20950;-69
2023/10/17 12:15:20;;;;;;;21.03;11.30;;;12.40;67.90;;;;;;4982676;28;20611;-69
2023/10/17 12:17:48;;;;;;;21.53;10.60;;;12.70;67.50;;;;;;4988191;28;20453;-70
2023/10/17 12:20:13;;;;;;;19.60;10.17;;;12.80;67.20;;;;;;4990848;28;20432;-69
2023/10/17 12:22:40;;;;;;;17.73;9.83;;;13.00;66.90;;;;;;4990980;28;20464;-69
2023/10/17 12:25:06;;;;;;;17.10;10.20;;;13.30;66.70;;;;;;4986001;28;20762;-70
2023/10/17 12:27:32;;;;;;;16.57;10.17;;;13.70;65.70;;;;;;4988457;28;20515;-69
2023/10/17 12:29:58;;;;;;;17.60;11.50;;;14.00;65.00;;;;;;4989791;28;20426;-69
2023/10/17 12:32:24;;;;;;;16.43;9.70;;;14.10;64.40;;;;;;4990101;28;20245;-69
2023/10/17 12:34:54;;;;;;;16.40;9.90;;;14.00;65.00;;;;;;4988405;28;20215;-70
2023/10/17 12:37:20;;;;;;;17.90;10.57;;;13.90;65.10;;;;;;4980094;28;20966;-70
2023/10/17 12:39:47;;;;;;;19.00;10.27;;;13.80;65.30;;;;;;4986298;28;20441;-71
2023/10/17 12:42:13;;;;;;;19.50;10.23;;;13.80;65.30;;;;;;4985854;28;20252;-71
2023/10/17 12:44:39;;;;;;;17.23;10.07;;;13.80;65.40;;;;;;4983206;28;20565;-70
2023/10/17 12:47:05;;;;;;;20.00;10.73;;;13.80;65.40;;;;;;4980429;28;21271;-70
2023/10/17 12:49:30;;;;;;;19.90;10.43;;;13.70;65.70;;;;;;4986164;28;20189;-69
2023/10/17 12:51:57;;;;;;;22.63;11.40;;;13.60;65.80;;;;;;4984170;28;20434;-70
2023/10/17 12:54:26;;;;;;;15.30;10.20;;;13.50;66.00;;;;;;4984163;28;20702;-69
2023/10/17 12:56:52;;;;;;;19.53;9.97;;;13.60;66.30;;;;;;4985691;28;20492;-70
2023/10/17 12:59:18;;;;;;;18.60;10.07;;;13.60;66.00;;;;;;4987241;28;21361;-70
2023/10/17 13:01:44;;;;;;;18.27;9.63;;;13.70;66.00;;;;;;4986069;28;20422;-70
2023/10/17 13:04:09;;;;;;;19.13;10.80;;;13.70;66.10;;;;;;4986882;28;20705;-69
2023/10/17 13:06:36;;;;;;;18.10;9.57;;;13.80;66.10;;;;;;4983499;28;20454;-70
2023/10/17 13:09:04;;;;;;;17.70;10.03;;;13.80;65.70;;;;;;4984918;28;20197;-70
2023/10/17 13:11:30;;;;;;;17.20;9.70;;;13.70;65.80;;;;;;4992466;28;20422;-70
2023/10/17 13:13:57;;;;;;;11.73;7.90;;;13.70;66.10;;;;;;4984643;28;20476;-71
2023/10/17 13:16:26;;;;;;;18.00;10.83;;;13.60;66.30;;;;;;4983941;28;20462;-70
2023/10/17 13:18:54;;;;;;;14.30;9.13;;;13.60;66.10;;;;;;4989063;28;20432;-71
2023/10/17 13:21:20;;;;;;;17.73;10.30;;;13.60;66.30;;;;;;4991199;28;20426;-69
2023/10/17 13:23:46;;;;;;;13.83;9.07;;;13.60;66.30;;;;;;4991992;28;20810;-71
2023/10/17 13:26:13;;;;;;;16.97;10.07;;;13.60;66.40;;;;;;4986465;28;20270;-72
2023/10/17 13:28:39;;;;;;;17.93;10.00;;;13.50;66.40;;;;;;4990581;28;20186;-72
2023/10/17 13:31:12;;;;;;;18.00;9.80;;;13.60;66.40;;;;;;4990813;28;20441;-70
2023/10/17 13:33:42;;;;;;;17.00;10.30;;;13.60;66.40;;;;;;4992244;28;20480;-69
2023/10/17 13:36:10;;;;;;;17.20;10.07;;;13.60;66.40;;;;;;4984436;28;20556;-72
2023/10/17 13:38:37;;;;;;;17.97;10.47;;;13.50;66.30;;;;;;4989007;28;20533;-70
2023/10/17 13:41:09;;;;;;;18.43;10.20;;;13.50;66.60;;;;;;4992193;28;20503;-69
2023/10/17 13:43:36;;;;;;;16.93;9.73;;;13.50;66.70;;;;;;4991976;28;20525;-69
2023/10/17 13:46:09;;;;;;;16.03;9.87;;;13.40;66.40;;;;;;4986178;28;20842;-72
2023/10/17 13:48:36;;;;;;;21.80;10.73;;;13.30;66.70;;;;;;4991403;28;20431;-70
2023/10/17 13:51:09;;;;;;;19.03;10.40;;;13.30;67.00;;;;;;5006676;28;20468;-70
2023/10/17 13:53:36;;;;;;;21.30;11.03;;;13.30;67.20;;;;;;4989594;28;20432;-71
2023/10/17 13:56:07;;;;;;;24.83;12.27;;;13.30;67.20;;;;;;4987677;28;20474;-71
2023/10/17 13:58:36;;;;;;;21.37;10.77;;;13.40;66.90;;;;;;4991172;28;20441;-70
2023/10/17 14:01:03;;;;;;;18.10;10.10;;;13.50;67.20;;;;;;4991437;28;20453;-70
2023/10/17 14:03:29;;;;;;;20.10;10.70;;;13.50;66.70;;;;;;4987043;28;21308;-71
2023/10/17 14:05:54;;;;;;;19.80;11.30;;;13.40;66.70;;;;;;4988735;28;20445;-70
2023/10/17 14:08:25;;;;;;;33.23;11.47;;;13.40;66.90;;;;;;4991573;28;20418;-71
2023/10/17 14:10:51;;;;;;;18.93;11.10;;;13.40;66.90;;;;;;4991426;28;20191;-70
2023/10/17 14:13:18;;;;;;;21.60;11.00;;;13.30;66.70;;;;;;4991289;28;20417;-69
2023/10/17 14:15:44;;;;;;;18.93;11.23;;;13.20;67.20;;;;;;4985890;28;20478;-70
2023/10/17 14:18:13;;;;;;;19.30;11.07;;;13.20;67.30;;;;;;4991033;28;20414;-69
2023/10/17 14:20:40;;;;;;;19.70;10.83;;;13.20;67.30;;;;;;4990077;28;20803;-71
2023/10/17 14:23:16;;;;;;;17.50;10.27;;;13.30;67.20;;;;;;4990096;28;20926;-71
2023/10/17 14:26:03;;;;;;;20.57;10.90;;;13.30;67.30;;;;;;4984585;28;20837;-70
2023/10/17 14:28:29;;;;;;;17.00;10.33;;;13.40;67.20;;;;;;4984750;28;21063;-73
2023/10/17 14:30:55;;;;;;;17.73;9.80;;;13.50;66.90;;;;;;4982896;28;20431;-72
2023/10/17 14:33:21;;;;;;;17.57;10.27;;;13.60;66.70;;;;;;4990272;28;20437;-72
2023/10/17 14:35:48;;;;;;;17.47;9.97;;;13.70;66.40;;;;;;4986257;28;20481;-71
2023/10/17 14:38:16;;;;;;;18.40;10.10;;;13.70;66.40;;;;;;4988809;28;20418;-72
2023/10/17 14:40:42;;;;;;;21.77;11.13;;;13.70;66.60;;;;;;4991629;28;20495;-71
2023/10/17 14:43:12;;;;;;;19.70;10.40;;;13.80;66.70;;;;;;4988587;28;20427;-72
2023/10/17 14:45:41;;;;;;;17.40;10.70;;;13.80;66.70;;;;;;4988641;28;20477;-71
2023/10/17 14:48:11;;;;;;;21.23;12.00;;;13.90;66.60;;;;;;4990656;28;20437;-71
2023/10/17 14:50:37;;;;;;;18.23;10.67;;;13.90;66.60;;;;;;4991096;28;20430;-72
2023/10/17 14:53:03;;;;;;;17.87;11.33;;;13.90;66.60;;;;;;4990004;28;20441;-71
2023/10/17 14:55:29;;;;;;;18.97;10.53;;;13.80;66.40;;;;;;4983233;28;20486;-71
2023/10/17 14:57:55;;;;;;;18.57;10.17;;;13.80;66.60;;;;;;4986118;28;20216;-70
2023/10/17 15:00:22;;;;;;;17.80;10.53;;;13.80;66.70;;;;;;4986847;28;20571;-73
2023/10/17 15:02:49;;;;;;;18.30;10.43;;;13.80;66.70;;;;;;4989764;28;20426;-71
2023/10/17 15:05:16;;;;;;;19.20;10.30;;;13.70;66.70;;;;;;4990037;28;20449;-72
2023/10/17 15:07:42;;;;;;;14.20;9.73;;;13.70;66.70;;;;;;4989950;28;20422;-70
2023/10/17 15:10:12;;;;;;;17.23;9.60;;;13.70;66.70;;;;;;4998074;28;20926;-70
2023/10/17 15:12:42;;;;;;;15.60;10.10;;;13.70;66.90;;;;;;4984180;28;20431;-71
2023/10/17 15:15:13;;;;;;;18.23;9.90;;;13.80;66.70;;;;;;4989187;28;21006;-72
2023/10/17 15:17:42;;;;;;;18.57;10.17;;;13.70;66.90;;;;;;5002941;28;20833;-71
2023/10/17 15:20:12;;;;;;;16.60;10.40;;;13.70;66.90;;;;;;4988638;28;20431;-70